Time;durP1;ratioP1;P1;durP2;ratioP2;P2;SDS_P1;SDS_P2;PMS_P1;PMS_P2;Temp;Humidity;BMP_temperature;BMP_pressure;BME280_temperature;BME280_humidity;BME280_pressure;Samples;Min_cycle;Max_cycle;Signal;HPM_P1;HPM_P2
2023/05/21 00:01:35;;;;;;;14.73;8.57;;;;;;;;;;5050790;28;20195;-62
2023/05/21 00:04:02;;;;;;;14.53;8.70;;;;;;;;;;5051581;28;20186;-62
2023/05/21 00:06:29;;;;;;;13.70;7.97;;;;;;;;;;5051711;28;20202;-66
2023/05/21 00:08:55;;;;;;;13.73;7.57;;;;;;;;;;5053124;28;20336;-62
2023/05/21 00:11:24;;;;;;;14.77;8.00;;;;;;;;;;5059212;28;20891;-62
2023/05/21 00:13:51;;;;;;;12.87;7.20;;;;;;;;;;5068000;28;20305;-63
2023/05/21 00:16:18;;;;;;;15.57;8.37;;;;;;;;;;5065874;28;20221;-63
2023/05/21 00:18:44;;;;;;;16.17;8.17;;;;;;;;;;5056127;28;20223;-63
2023/05/21 00:21:12;;;;;;;17.00;8.67;;;;;;;;;;5035858;28;20194;-63
2023/05/21 00:23:41;;;;;;;18.13;8.60;;;;;;;;;;5066456;28;20194;-63
2023/05/21 00:26:08;;;;;;;19.77;9.57;;;;;;;;;;5069611;28;20231;-63
2023/05/21 00:28:34;;;;;;;17.40;9.37;;;;;;;;;;5068000;28;20249;-63
2023/05/21 00:31:01;;;;;;;18.57;9.50;;;;;;;;;;5057057;28;20194;-63
2023/05/21 00:33:29;;;;;;;18.57;8.47;;;;;;;;;;5064065;28;20217;-63
2023/05/21 00:35:57;;;;;;;20.07;8.80;;;;;;;;;;5069388;28;20197;-63
2023/05/21 00:38:26;;;;;;;17.70;9.07;;;;;;;;;;5054088;28;20195;-63
2023/05/21 00:40:54;;;;;;;17.73;9.13;;;;;;;;;;5056598;28;20192;-63
2023/05/21 00:43:25;;;;;;;19.17;9.27;;;;;;;;;;5046333;28;20281;-62
2023/05/21 00:45:52;;;;;;;19.93;9.20;;;;;;;;;;5049566;28;20546;-63
2023/05/21 00:48:20;;;;;;;18.03;9.67;;;;;;;;;;5042471;28;20222;-63
2023/05/21 00:50:48;;;;;;;16.90;8.93;;;;;;;;;;5031180;28;20943;-63
2023/05/21 00:53:17;;;;;;;19.67;9.33;;;;;;;;;;5051515;28;20982;-64
2023/05/21 00:55:45;;;;;;;20.53;10.33;;;;;;;;;;5032399;28;20213;-63
2023/05/21 00:58:11;;;;;;;14.90;8.53;;;;;;;;;;5062433;28;20269;-63
2023/05/21 01:00:39;;;;;;;15.07;7.90;;;;;;;;;;5052187;28;20190;-63
2023/05/21 01:03:06;;;;;;;17.07;8.87;;;;;;;;;;5068007;28;21091;-63
2023/05/21 01:05:33;;;;;;;15.80;7.93;;;;;;;;;;5049198;28;20225;-64
2023/05/21 01:08:00;;;;;;;13.33;7.37;;;;;;;;;;5052138;28;20209;-63
2023/05/21 01:10:27;;;;;;;13.50;6.63;;;;;;;;;;5037397;28;20206;-63
2023/05/21 01:12:54;;;;;;;11.97;7.43;;;;;;;;;;5049442;28;20187;-63
2023/05/21 01:15:20;;;;;;;10.83;6.40;;;;;;;;;;5032800;28;20191;-63
2023/05/21 01:17:47;;;;;;;10.30;6.37;;;;;;;;;;5055775;28;20226;-63
2023/05/21 01:20:18;;;;;;;9.17;5.90;;;;;;;;;;5031274;28;20231;-63
2023/05/21 01:22:52;;;;;;;12.13;6.50;;;;;;;;;;5030744;28;20253;-63
2023/05/21 01:25:23;;;;;;;6.83;5.60;;;;;;;;;;5051263;28;20216;-63
2023/05/21 01:27:50;;;;;;;10.10;5.90;;;;;;;;;;5038575;28;20202;-63
2023/05/21 01:30:17;;;;;;;7.50;5.30;;;;;;;;;;5058130;28;20273;-63
2023/05/21 01:32:48;;;;;;;11.00;6.87;;;;;;;;;;5049016;28;20213;-63
2023/05/21 01:35:35;;;;;;;10.90;5.70;;;;;;;;;;5014864;28;20196;-63
2023/05/21 01:38:08;;;;;;;14.23;6.40;;;;;;;;;;5010954;28;20194;-63
2023/05/21 01:40:37;;;;;;;9.23;5.43;;;;;;;;;;5050523;28;20268;-63
2023/05/21 02:15:50;;;;;;;12.50;6.00;;;;;;;;;;5058183;28;20606;-64
2023/05/21 02:18:20;;;;;;;7.23;5.13;;;;;;;;;;5050596;28;21823;-63
2023/05/21 02:20:46;;;;;;;7.80;4.63;;;;;;;;;;5056696;28;20210;-63
2023/05/21 02:23:13;;;;;;;7.63;4.87;;;;;;;;;;5065387;28;20590;-63
2023/05/21 02:25:40;;;;;;;7.57;5.10;;;;;;;;;;5056984;28;20182;-63
2023/05/21 02:28:07;;;;;;;9.57;5.37;;;;;;;;;;5070896;28;20214;-64
2023/05/21 02:30:34;;;;;;;10.83;5.57;;;;;;;;;;5053298;28;20553;-64
2023/05/21 02:33:03;;;;;;;8.53;5.07;;;;;;;;;;5053218;28;20193;-64
2023/05/21 02:35:31;;;;;;;9.20;5.63;;;;;;;;;;5071242;28;20791;-63
2023/05/21 02:37:58;;;;;;;10.13;5.63;;;;;;;;;;5065805;28;20193;-64
2023/05/21 02:40:25;;;;;;;9.97;5.23;;;;;;;;;;5038675;28;20190;-63
2023/05/21 02:42:52;;;;;;;8.63;5.17;;;;;;;;;;5067166;28;20189;-66
2023/05/21 02:45:20;;;;;;;7.80;5.93;;;;;;;;;;5034039;28;20233;-63
2023/05/21 02:47:46;;;;;;;8.97;5.60;;;;;;;;;;5041771;28;20215;-63
2023/05/21 02:50:16;;;;;;;9.57;6.47;;;;;;;;;;5035569;28;21071;-63
2023/05/21 02:52:51;;;;;;;10.97;7.07;;;;;;;;;;5033724;28;20241;-64
2023/05/21 02:55:18;;;;;;;11.13;6.90;;;;;;;;;;5033355;28;20230;-63
2023/05/21 02:57:45;;;;;;;12.17;7.30;;;;;;;;;;5048916;28;20259;-64
2023/05/21 03:00:12;;;;;;;11.57;7.10;;;;;;;;;;5037504;28;20257;-63
2023/05/21 03:02:41;;;;;;;9.53;6.13;;;;;;;;;;5053121;28;20196;-63
2023/05/21 03:05:09;;;;;;;10.07;6.40;;;;;;;;;;5051306;28;20205;-64
2023/05/21 03:07:35;;;;;;;9.63;6.47;;;;;;;;;;5048870;28;20187;-63
2023/05/21 03:10:04;;;;;;;11.17;6.77;;;;;;;;;;5040634;28;20198;-63
2023/05/21 03:12:31;;;;;;;8.53;6.10;;;;;;;;;;5053816;28;20196;-63
2023/05/21 03:14:58;;;;;;;10.97;7.13;;;;;;;;;;5035762;28;20673;-63
2023/05/21 03:17:26;;;;;;;10.13;6.87;;;;;;;;;;5035952;28;20198;-63
2023/05/21 03:19:53;;;;;;;8.63;6.40;;;;;;;;;;5069724;28;20218;-64
2023/05/21 03:22:20;;;;;;;10.43;6.27;;;;;;;;;;5061703;28;20198;-63
2023/05/21 03:24:47;;;;;;;10.30;7.20;;;;;;;;;;5058227;28;20190;-64
2023/05/21 03:27:16;;;;;;;10.27;7.13;;;;;;;;;;5052154;28;20297;-63
2023/05/21 03:29:45;;;;;;;10.27;6.80;;;;;;;;;;5051984;28;20770;-64
2023/05/21 03:32:12;;;;;;;9.17;6.90;;;;;;;;;;5044616;28;20194;-63
2023/05/21 03:34:39;;;;;;;12.43;6.70;;;;;;;;;;5039755;28;20244;-63
2023/05/21 03:37:06;;;;;;;10.40;7.20;;;;;;;;;;5070988;28;20202;-63
2023/05/21 03:39:33;;;;;;;11.43;6.90;;;;;;;;;;5038659;28;20191;-63
2023/05/21 03:41:59;;;;;;;9.40;7.03;;;;;;;;;;5066102;28;20194;-63
2023/05/21 03:44:44;;;;;;;11.70;8.27;;;;;;;;;;5051786;28;20198;-64
2023/05/21 03:47:31;;;;;;;12.53;8.67;;;;;;;;;;5054419;28;20558;-63
2023/05/21 03:50:00;;;;;;;11.97;8.07;;;;;;;;;;5036214;28;20217;-63
2023/05/21 03:52:27;;;;;;;11.63;7.77;;;;;;;;;;5050563;28;20205;-63
2023/05/21 03:54:55;;;;;;;13.60;7.73;;;;;;;;;;5048780;28;20191;-63
2023/05/21 03:57:22;;;;;;;13.27;7.90;;;;;;;;;;5051648;28;20198;-63
2023/05/21 03:59:48;;;;;;;12.53;7.90;;;;;;;;;;5042198;28;20194;-63
2023/05/21 04:02:15;;;;;;;11.60;8.03;;;;;;;;;;5056391;28;20230;-63
2023/05/21 04:04:43;;;;;;;13.07;8.70;;;;;;;;;;5065119;28;20202;-63
2023/05/21 04:07:13;;;;;;;12.90;8.17;;;;;;;;;;5068028;28;20186;-63
2023/05/21 04:09:40;;;;;;;14.57;10.00;;;;;;;;;;5050942;28;20222;-63
2023/05/21 04:12:07;;;;;;;14.37;8.67;;;;;;;;;;5068951;28;20534;-63
2023/05/21 04:14:36;;;;;;;11.57;7.87;;;;;;;;;;5069261;28;20645;-63
2023/05/21 04:17:06;;;;;;;10.27;6.20;;;;;;;;;;5051275;28;20183;-63
2023/05/21 04:19:32;;;;;;;12.30;6.60;;;;;;;;;;5051380;28;20226;-63
2023/05/21 04:22:02;;;;;;;7.97;6.23;;;;;;;;;;5048914;28;20190;-63
2023/05/21 04:24:30;;;;;;;9.97;6.93;;;;;;;;;;5032452;28;20202;-64
2023/05/21 04:27:10;;;;;;;10.30;7.10;;;;;;;;;;5032117;28;20265;-63
2023/05/21 04:29:41;;;;;;;12.70;7.77;;;;;;;;;;5036004;28;20230;-63
2023/05/21 04:32:08;;;;;;;12.93;8.23;;;;;;;;;;5061742;28;20198;-63
2023/05/21 04:34:34;;;;;;;9.70;7.57;;;;;;;;;;5064005;28;20708;-63
2023/05/21 04:37:01;;;;;;;12.50;7.70;;;;;;;;;;5090437;28;20196;-63
2023/05/21 04:39:30;;;;;;;12.03;7.57;;;;;;;;;;5079420;28;20653;-63
2023/05/21 04:41:57;;;;;;;12.33;7.73;;;;;;;;;;5068222;28;20197;-63
2023/05/21 04:44:24;;;;;;;14.00;8.17;;;;;;;;;;5050656;28;20226;-63
2023/05/21 04:46:51;;;;;;;11.30;7.63;;;;;;;;;;5041564;28;20264;-63
2023/05/21 04:49:19;;;;;;;11.07;8.07;;;;;;;;;;5031806;28;20218;-64
2023/05/21 04:51:49;;;;;;;11.40;7.77;;;;;;;;;;5035422;28;20243;-64
2023/05/21 04:54:16;;;;;;;11.73;7.27;;;;;;;;;;5049266;28;20191;-64
2023/05/21 04:56:43;;;;;;;11.73;7.87;;;;;;;;;;5044277;28;20288;-63
2023/05/21 04:59:10;;;;;;;9.67;7.00;;;;;;;;;;5065688;28;20190;-63
2023/05/21 05:01:37;;;;;;;9.03;6.80;;;;;;;;;;5040941;28;20217;-63
2023/05/21 05:04:04;;;;;;;9.73;7.50;;;;;;;;;;5034028;28;20178;-63
2023/05/21 05:06:31;;;;;;;12.40;7.87;;;;;;;;;;5068201;28;20217;-63
2023/05/21 05:08:58;;;;;;;11.53;7.73;;;;;;;;;;5051315;28;20230;-63
2023/05/21 05:11:25;;;;;;;13.07;8.07;;;;;;;;;;5049301;28;20194;-63
2023/05/21 05:13:52;;;;;;;10.20;8.30;;;;;;;;;;5062870;28;20638;-63
2023/05/21 05:16:23;;;;;;;9.67;7.37;;;;;;;;;;5050587;28;20218;-63
2023/05/21 05:18:51;;;;;;;9.07;7.47;;;;;;;;;;5061009;28;20221;-64
2023/05/21 05:21:20;;;;;;;9.77;7.63;;;;;;;;;;5045710;28;20431;-65
2023/05/21 05:23:47;;;;;;;10.47;7.57;;;;;;;;;;5046649;28;20209;-63
2023/05/21 05:26:14;;;;;;;11.03;7.40;;;;;;;;;;5041963;28;20194;-64
2023/05/21 05:28:41;;;;;;;11.77;7.47;;;;;;;;;;5054320;28;20202;-64
2023/05/21 05:31:08;;;;;;;10.33;7.40;;;;;;;;;;5031542;28;20221;-65
2023/05/21 05:33:35;;;;;;;10.83;6.80;;;;;;;;;;5065676;28;20721;-64
2023/05/21 05:36:03;;;;;;;7.97;6.87;;;;;;;;;;5037488;28;20326;-63
2023/05/21 05:38:30;;;;;;;10.90;7.07;;;;;;;;;;5083280;28;20672;-64
2023/05/21 05:40:57;;;;;;;8.37;7.23;;;;;;;;;;5044527;28;20198;-65
2023/05/21 05:43:28;;;;;;;9.80;7.00;;;;;;;;;;5052012;28;20209;-66
2023/05/21 05:45:56;;;;;;;10.67;6.33;;;;;;;;;;5031332;28;20255;-65
2023/05/21 05:48:23;;;;;;;7.17;5.60;;;;;;;;;;5035190;28;20218;-65
2023/05/21 05:50:55;;;;;;;8.53;6.17;;;;;;;;;;5037536;28;20208;-65
2023/05/21 05:53:24;;;;;;;7.37;5.80;;;;;;;;;;5066596;28;20715;-64
2023/05/21 05:55:51;;;;;;;7.87;6.20;;;;;;;;;;5031386;28;20190;-64
2023/05/21 05:58:18;;;;;;;8.73;5.87;;;;;;;;;;5040910;28;20221;-64
2023/05/21 06:00:56;;;;;;;7.07;5.93;;;;;;;;;;5033355;28;20581;-64
2023/05/21 06:03:23;;;;;;;8.03;5.83;;;;;;;;;;5035246;28;20721;-65
2023/05/21 06:05:52;;;;;;;7.80;5.90;;;;;;;;;;5043934;28;20199;-63
2023/05/21 06:08:19;;;;;;;8.63;5.60;;;;;;;;;;5040735;28;20226;-65
2023/05/21 06:10:46;;;;;;;7.40;5.63;;;;;;;;;;5038422;28;20309;-64
2023/05/21 06:13:13;;;;;;;6.40;4.67;;;;;;;;;;5045719;28;20198;-65
2023/05/21 06:15:41;;;;;;;6.77;4.20;;;;;;;;;;5061939;28;20201;-64
2023/05/21 06:18:11;;;;;;;5.10;3.70;;;;;;;;;;5045995;28;20191;-67
2023/05/21 06:20:37;;;;;;;4.97;4.30;;;;;;;;;;5061025;28;20207;-65
2023/05/21 06:23:06;;;;;;;5.03;3.73;;;;;;;;;;5040397;28;20692;-64
2023/05/21 06:25:32;;;;;;;4.60;3.50;;;;;;;;;;5031029;28;20199;-65
2023/05/21 06:28:00;;;;;;;5.57;3.27;;;;;;;;;;5028530;28;20197;-63
2023/05/21 06:30:28;;;;;;;4.33;3.13;;;;;;;;;;5035120;28;20218;-65
2023/05/21 06:32:56;;;;;;;4.43;3.13;;;;;;;;;;5058329;28;20201;-65
2023/05/21 06:35:24;;;;;;;3.77;3.33;;;;;;;;;;5031601;28;20206;-65
2023/05/21 06:37:51;;;;;;;6.87;3.53;;;;;;;;;;5031274;28;20274;-64
2023/05/21 06:40:19;;;;;;;4.87;3.10;;;;;;;;;;5036345;28;20202;-65
2023/05/21 06:42:47;;;;;;;3.43;2.43;;;;;;;;;;5051419;28;20205;-64
2023/05/21 06:45:33;;;;;;;5.33;2.50;;;;;;;;;;5071560;28;20189;-65
2023/05/21 06:48:25;;;;;;;4.70;2.77;;;;;;;;;;5058680;28;20197;-64
2023/05/21 06:50:53;;;;;;;3.60;2.70;;;;;;;;;;5042421;28;20213;-65
2023/05/21 06:53:20;;;;;;;5.70;3.40;;;;;;;;;;5058644;28;20187;-65
2023/05/21 06:55:47;;;;;;;4.23;3.27;;;;;;;;;;5031934;28;20194;-66
2023/05/21 06:58:20;;;;;;;4.87;2.73;;;;;;;;;;5049238;28;20745;-65
2023/05/21 07:00:47;;;;;;;5.10;2.70;;;;;;;;;;5038203;28;20187;-65
2023/05/21 07:03:14;;;;;;;5.40;3.00;;;;;;;;;;5062455;28;20198;-65
2023/05/21 07:05:41;;;;;;;3.83;2.63;;;;;;;;;;5069875;28;20218;-64
2023/05/21 07:08:12;;;;;;;7.43;2.70;;;;;;;;;;5040426;28;20635;-64
2023/05/21 07:10:39;;;;;;;3.70;2.27;;;;;;;;;;5048499;28;20297;-65
2023/05/21 07:13:06;;;;;;;2.90;2.40;;;;;;;;;;5035947;28;20221;-65
2023/05/21 07:15:33;;;;;;;3.60;2.60;;;;;;;;;;5035554;28;20174;-63
2023/05/21 07:18:02;;;;;;;4.30;2.37;;;;;;;;;;5045145;28;20191;-63
2023/05/21 07:20:29;;;;;;;3.47;2.20;;;;;;;;;;5065231;28;20291;-66
2023/05/21 07:23:01;;;;;;;4.93;2.23;;;;;;;;;;5046215;28;20605;-65
2023/05/21 07:25:27;;;;;;;4.00;2.20;;;;;;;;;;5060874;28;20281;-66
2023/05/21 07:27:56;;;;;;;2.87;2.20;;;;;;;;;;5045358;28;20201;-64
2023/05/21 07:30:25;;;;;;;2.80;2.07;;;;;;;;;;5036170;28;20322;-65
2023/05/21 07:32:52;;;;;;;2.60;2.13;;;;;;;;;;5026533;28;20222;-66
2023/05/21 07:35:19;;;;;;;4.17;2.50;;;;;;;;;;5042258;28;20190;-65
2023/05/21 07:37:46;;;;;;;4.07;2.30;;;;;;;;;;5039791;28;20198;-65
2023/05/21 07:40:14;;;;;;;3.30;2.10;;;;;;;;;;5029225;28;20208;-65
2023/05/21 07:42:43;;;;;;;2.97;1.90;;;;;;;;;;5043280;28;20321;-65
2023/05/21 07:45:11;;;;;;;6.40;3.23;;;;;;;;;;5036015;28;20203;-65
2023/05/21 07:47:43;;;;;;;6.27;3.30;;;;;;;;;;5043086;28;20281;-65
2023/05/21 07:50:10;;;;;;;6.27;3.37;;;;;;;;;;5032933;28;20593;-64
2023/05/21 07:52:37;;;;;;;4.60;2.50;;;;;;;;;;5049502;28;20463;-65
2023/05/21 07:55:05;;;;;;;3.77;2.53;;;;;;;;;;5045399;28;20202;-64
2023/05/21 07:57:40;;;;;;;4.17;2.50;;;;;;;;;;5181201;22;20272;-71
2023/05/21 08:00:13;;;;;;;5.60;2.80;;;;;;;;;;5014141;28;20206;-70
2023/05/21 08:02:46;;;;;;;3.73;2.63;;;;;;;;;;5012182;28;20187;-64
2023/05/21 08:05:15;;;;;;;5.43;2.60;;;;;;;;;;4999855;28;20255;-63
2023/05/21 08:07:43;;;;;;;7.03;2.50;;;;;;;;;;5012292;28;20589;-65
2023/05/21 08:10:10;;;;;;;3.87;2.70;;;;;;;;;;4994880;28;20284;-64
2023/05/21 08:12:36;;;;;;;4.57;2.60;;;;;;;;;;5008697;28;20709;-63
2023/05/21 08:15:05;;;;;;;3.17;2.30;;;;;;;;;;5010893;28;20306;-63
2023/05/21 08:17:36;;;;;;;2.67;2.20;;;;;;;;;;5000521;28;20192;-63
2023/05/21 08:20:03;;;;;;;3.47;2.73;;;;;;;;;;5011404;28;20203;-63
2023/05/21 08:22:31;;;;;;;2.80;2.50;;;;;;;;;;4994956;28;20189;-63
2023/05/21 08:24:59;;;;;;;4.03;2.90;;;;;;;;;;4997333;28;20368;-64
2023/05/21 08:27:26;;;;;;;4.50;2.43;;;;;;;;;;5015856;28;20206;-64
2023/05/21 08:29:53;;;;;;;5.43;2.23;;;;;;;;;;5017298;28;20618;-64
2023/05/21 08:32:20;;;;;;;3.93;3.00;;;;;;;;;;5013093;28;20199;-64
2023/05/21 08:34:48;;;;;;;5.77;2.77;;;;;;;;;;5015352;28;20248;-63
2023/05/21 08:37:44;;;;;;;3.30;1.77;;;;;;;;;;5014967;28;20278;-64
2023/05/21 08:40:40;;;;;;;3.10;2.10;;;;;;;;;;5008905;28;20251;-64
2023/05/21 08:43:12;;;;;;;4.83;2.27;;;;;;;;;;5009821;28;20205;-64
2023/05/21 08:45:46;;;;;;;5.10;2.70;;;;;;;;;;5001272;28;20204;-61
2023/05/21 08:48:15;;;;;;;4.07;2.23;;;;;;;;;;5033127;28;20551;-60
2023/05/21 08:50:42;;;;;;;2.80;2.00;;;;;;;;;;5014388;28;20709;-60
2023/05/21 08:53:15;;;;;;;3.40;2.00;;;;;;;;;;4996270;28;20204;-60
2023/05/21 08:55:56;;;;;;;3.77;2.40;;;;;;;;;;5007712;28;20639;-61
2023/05/21 08:58:32;;;;;;;2.40;1.87;;;;;;;;;;5004190;28;20696;-60
2023/05/21 09:01:00;;;;;;;2.73;2.10;;;;;;;;;;5006137;28;20192;-61
2023/05/21 09:03:28;;;;;;;4.90;2.10;;;;;;;;;;4992273;28;20193;-60
2023/05/21 09:05:55;;;;;;;4.67;2.37;;;;;;;;;;5004123;28;20204;-62
2023/05/21 09:08:26;;;;;;;3.93;1.93;;;;;;;;;;4986196;28;20233;-60
2023/05/21 09:11:03;;;;;;;3.00;2.07;;;;;;;;;;4997457;28;20239;-60
2023/05/21 09:13:36;;;;;;;3.07;2.30;;;;;;;;;;5005896;28;20200;-60
2023/05/21 09:16:11;;;;;;;3.13;2.00;;;;;;;;;;5005282;28;20198;-60
2023/05/21 09:18:38;;;;;;;5.53;2.47;;;;;;;;;;5021818;28;20206;-60
2023/05/21 09:21:25;;;;;;;3.33;2.20;;;;;;;;;;5003651;28;20589;-60
2023/05/21 09:23:58;;;;;;;2.93;2.00;;;;;;;;;;4997131;28;20198;-62
2023/05/21 09:26:25;;;;;;;3.30;2.40;;;;;;;;;;4984676;28;20255;-61
2023/05/21 09:28:59;;;;;;;3.83;1.90;;;;;;;;;;5007878;28;20356;-63
2023/05/21 09:31:26;;;;;;;3.63;2.10;;;;;;;;;;5002777;28;20193;-64
2023/05/21 09:33:56;;;;;;;2.30;1.93;;;;;;;;;;4998219;28;20195;-64
2023/05/21 09:36:24;;;;;;;3.77;2.20;;;;;;;;;;5006134;28;20203;-65
2023/05/21 09:38:57;;;;;;;3.80;2.13;;;;;;;;;;5011251;28;20270;-61
2023/05/21 09:41:31;;;;;;;2.70;2.00;;;;;;;;;;4996590;28;20851;-66
2023/05/21 09:43:59;;;;;;;3.90;2.33;;;;;;;;;;5001507;28;20206;-61
2023/05/21 09:46:27;;;;;;;4.03;2.27;;;;;;;;;;5000140;28;20197;-61
2023/05/21 09:48:59;;;;;;;2.53;2.33;;;;;;;;;;5000870;28;20206;-62
2023/05/21 09:51:27;;;;;;;5.03;2.80;;;;;;;;;;5017646;28;20250;-62
2023/05/21 09:53:56;;;;;;;3.13;2.60;;;;;;;;;;4992366;28;20569;-61
2023/05/21 09:56:30;;;;;;;2.80;2.30;;;;;;;;;;5018754;28;20188;-62
2023/05/21 09:59:03;;;;;;;6.00;2.70;;;;;;;;;;5023002;28;20232;-64
2023/05/21 10:01:30;;;;;;;3.70;2.40;;;;;;;;;;5005181;28;20603;-61
2023/05/21 10:03:57;;;;;;;4.73;3.13;;;;;;;;;;5024876;28;20248;-60
2023/05/21 10:06:31;;;;;;;9.90;2.83;;;;;;;;;;5023576;28;20978;-62
2023/05/21 10:09:06;;;;;;;4.73;2.90;;;;;;;;;;5008442;28;20190;-61
2023/05/21 10:11:34;;;;;;;3.53;3.00;;;;;;;;;;5012792;28;20314;-61
2023/05/21 10:14:03;;;;;;;4.73;3.20;;;;;;;;;;5016876;28;20196;-60
2023/05/21 10:16:31;;;;;;;3.40;2.83;;;;;;;;;;5026445;28;20212;-60
2023/05/21 10:19:01;;;;;;;4.47;3.10;;;;;;;;;;5023405;28;20200;-59
2023/05/21 10:21:28;;;;;;;3.90;2.90;;;;;;;;;;5018669;28;20225;-60
2023/05/21 10:23:55;;;;;;;4.57;2.60;;;;;;;;;;5025730;28;20196;-60
2023/05/21 10:26:23;;;;;;;7.70;2.40;;;;;;;;;;5025899;28;20241;-61
2023/05/21 10:28:50;;;;;;;4.63;2.30;;;;;;;;;;5008644;28;20196;-61
2023/05/21 10:31:17;;;;;;;3.27;2.33;;;;;;;;;;5022377;28;20732;-63
2023/05/21 10:33:44;;;;;;;3.80;2.23;;;;;;;;;;5019602;28;20198;-62
2023/05/21 10:36:10;;;;;;;4.00;2.30;;;;;;;;;;5010784;28;20188;-60
2023/05/21 10:38:38;;;;;;;4.70;2.50;;;;;;;;;;5028855;28;20275;-60
2023/05/21 10:41:05;;;;;;;4.30;2.53;;;;;;;;;;5030664;28;20199;-60
2023/05/21 10:43:47;;;;;;;3.37;2.73;;;;;;;;;;5027014;28;20298;-61
2023/05/21 10:46:16;;;;;;;4.93;2.40;;;;;;;;;;4997476;28;20288;-61
2023/05/21 10:48:46;;;;;;;3.77;2.87;;;;;;;;;;5024766;28;20207;-62
2023/05/21 10:51:13;;;;;;;3.47;2.10;;;;;;;;;;5009346;28;20230;-61
2023/05/21 10:53:47;;;;;;;3.67;2.73;;;;;;;;;;5032067;28;20203;-61
2023/05/21 10:56:32;;;;;;;4.00;2.53;;;;;;;;;;5005938;28;20223;-61
2023/05/21 10:59:09;;;;;;;3.53;2.40;;;;;;;;;;5012095;28;20208;-61
2023/05/21 11:01:36;;;;;;;4.27;2.80;;;;;;;;;;5026178;28;20191;-61
2023/05/21 11:04:04;;;;;;;4.67;2.73;;;;;;;;;;5011742;28;20189;-61
2023/05/21 11:06:31;;;;;;;5.23;2.30;;;;;;;;;;5003917;28;20190;-61
2023/05/21 11:09:16;;;;;;;6.37;2.50;;;;;;;;;;5028668;28;20201;-61
2023/05/21 11:11:44;;;;;;;4.90;2.50;;;;;;;;;;5029892;28;20319;-61
2023/05/21 11:14:27;;;;;;;4.83;2.60;;;;;;;;;;5032019;28;20270;-61
2023/05/21 11:16:54;;;;;;;2.47;2.13;;;;;;;;;;5031430;28;20271;-61
2023/05/21 11:19:21;;;;;;;5.30;2.40;;;;;;;;;;5031696;28;20241;-60
2023/05/21 11:21:50;;;;;;;3.10;2.33;;;;;;;;;;5027858;28;20621;-61
2023/05/21 11:24:18;;;;;;;4.53;2.13;;;;;;;;;;5024896;28;20188;-61
2023/05/21 11:26:54;;;;;;;3.70;2.33;;;;;;;;;;5003974;28;20698;-60
2023/05/21 11:29:26;;;;;;;3.23;2.33;;;;;;;;;;5012091;28;20192;-60
2023/05/21 11:32:01;;;;;;;2.50;2.07;;;;;;;;;;4994186;28;20698;-60
2023/05/21 11:34:39;;;;;;;3.70;2.23;;;;;;;;;;4993934;28;20755;-60
2023/05/21 11:37:15;;;;;;;3.57;2.50;;;;;;;;;;5011610;28;20196;-61
2023/05/21 11:39:42;;;;;;;4.53;2.57;;;;;;;;;;5011071;28;20192;-61
2023/05/21 11:42:09;;;;;;;4.03;2.23;;;;;;;;;;5016011;28;20270;-61
2023/05/21 11:44:42;;;;;;;5.17;2.27;;;;;;;;;;5029084;28;20683;-61
2023/05/21 11:47:10;;;;;;;3.47;2.27;;;;;;;;;;5019050;28;20274;-63
2023/05/21 11:49:36;;;;;;;3.63;1.97;;;;;;;;;;5013181;28;20187;-63
2023/05/21 11:52:06;;;;;;;2.97;2.53;;;;;;;;;;5016731;28;20255;-63
2023/05/21 11:54:42;;;;;;;3.90;2.20;;;;;;;;;;5011836;28;20204;-63
2023/05/21 11:57:09;;;;;;;3.37;2.00;;;;;;;;;;5007160;28;20231;-63
2023/05/21 11:59:36;;;;;;;3.33;2.17;;;;;;;;;;4989465;28;20185;-63
2023/05/21 12:02:03;;;;;;;2.70;2.00;;;;;;;;;;4989379;28;20185;-63
2023/05/21 12:04:36;;;;;;;2.77;2.17;;;;;;;;;;4991657;28;20210;-65
2023/05/21 12:07:06;;;;;;;2.30;2.10;;;;;;;;;;5003344;28;20193;-64
2023/05/21 12:09:38;;;;;;;6.00;2.13;;;;;;;;;;4971706;28;20687;-63
2023/05/21 12:12:10;;;;;;;5.00;1.90;;;;;;;;;;4988982;28;20191;-64
2023/05/21 12:14:36;;;;;;;2.23;1.60;;;;;;;;;;4992003;28;20686;-64
2023/05/21 12:17:03;;;;;;;3.83;1.60;;;;;;;;;;4990917;28;20208;-64
2023/05/21 12:19:33;;;;;;;3.97;1.70;;;;;;;;;;5005855;28;20679;-63
2023/05/21 12:22:04;;;;;;;4.10;1.63;;;;;;;;;;4989503;28;20210;-65
2023/05/21 12:24:31;;;;;;;3.80;1.70;;;;;;;;;;4988821;28;20281;-63
2023/05/21 12:27:01;;;;;;;2.70;1.63;;;;;;;;;;4988697;28;20198;-62
2023/05/21 12:29:29;;;;;;;4.03;1.77;;;;;;;;;;5006769;28;20200;-61
2023/05/21 12:32:01;;;;;;;3.07;1.60;;;;;;;;;;5007956;28;20198;-61
2023/05/21 12:34:47;;;;;;;5.00;1.80;;;;;;;;;;5005646;28;20216;-63
2023/05/21 12:37:16;;;;;;;5.00;1.60;;;;;;;;;;4989326;28;20202;-49
2023/05/21 12:39:43;;;;;;;3.73;1.80;;;;;;;;;;4993450;28;20196;-51
2023/05/21 12:42:10;;;;;;;2.17;1.90;;;;;;;;;;5007181;28;20228;-52
2023/05/21 12:44:38;;;;;;;2.33;1.60;;;;;;;;;;5004261;28;20224;-52
2023/05/21 12:47:04;;;;;;;2.37;1.80;;;;;;;;;;4989026;28;20185;-50
2023/05/21 12:49:45;;;;;;;1.77;1.53;;;;;;;;;;4985466;28;20190;-50
2023/05/21 12:52:13;;;;;;;4.30;1.60;;;;;;;;;;4991315;28;20742;-50
2023/05/21 12:54:42;;;;;;;4.07;1.80;;;;;;;;;;5008284;28;20222;-50
2023/05/21 12:57:13;;;;;;;5.03;1.70;;;;;;;;;;5012744;28;20702;-48
2023/05/21 12:59:56;;;;;;;2.70;1.67;;;;;;;;;;5023792;28;20659;-52
2023/05/21 13:02:23;;;;;;;3.80;1.73;;;;;;;;;;5013930;28;20274;-51
2023/05/21 13:04:55;;;;;;;1.60;1.50;;;;;;;;;;5029512;28;20708;-51
2023/05/21 13:07:22;;;;;;;3.87;1.90;;;;;;;;;;5011790;28;20207;-52
2023/05/21 13:09:53;;;;;;;3.07;1.90;;;;;;;;;;5009664;28;20680;-48
2023/05/21 13:12:21;;;;;;;4.53;1.70;;;;;;;;;;5009602;28;20211;-56
2023/05/21 13:14:55;;;;;;;3.50;1.63;;;;;;;;;;5009391;28;20214;-64
2023/05/21 13:17:22;;;;;;;2.83;1.70;;;;;;;;;;5027666;28;20219;-64
2023/05/21 13:20:08;;;;;;;2.80;1.57;;;;;;;;;;5029101;28;20175;-63
2023/05/21 13:22:37;;;;;;;2.00;1.43;;;;;;;;;;5017961;28;20206;-66
2023/05/21 13:25:04;;;;;;;3.27;1.87;;;;;;;;;;5009523;28;20196;-66
2023/05/21 13:27:31;;;;;;;3.80;1.83;;;;;;;;;;5009018;28;20226;-65
2023/05/21 13:30:01;;;;;;;1.97;1.60;;;;;;;;;;5009659;28;20195;-64
2023/05/21 13:32:27;;;;;;;3.60;1.87;;;;;;;;;;4991830;28;20196;-62
2023/05/21 13:34:54;;;;;;;1.77;1.53;;;;;;;;;;5009765;28;20195;-64
2023/05/21 13:37:22;;;;;;;2.63;1.90;;;;;;;;;;5008583;28;20239;-71
2023/05/21 13:39:49;;;;;;;2.00;1.70;;;;;;;;;;5027870;28;20277;-67
2023/05/21 13:42:16;;;;;;;4.30;1.90;;;;;;;;;;5028747;28;20179;-61
2023/05/21 13:44:42;;;;;;;1.83;1.70;;;;;;;;;;5028241;28;20195;-68
2023/05/21 13:47:10;;;;;;;4.53;2.03;;;;;;;;;;5029607;28;20265;-62
2023/05/21 13:49:37;;;;;;;3.73;1.70;;;;;;;;;;5029126;28;20198;-66
2023/05/21 13:52:06;;;;;;;2.40;1.60;;;;;;;;;;5028774;28;20217;-67
2023/05/21 13:54:32;;;;;;;2.13;1.70;;;;;;;;;;5028704;28;20203;-65
2023/05/21 13:57:00;;;;;;;2.97;1.50;;;;;;;;;;5028742;28;20227;-64
2023/05/21 13:59:27;;;;;;;2.73;1.60;;;;;;;;;;5027969;28;20278;-64
2023/05/21 14:01:56;;;;;;;3.47;1.80;;;;;;;;;;5028972;28;20274;-62
2023/05/21 14:04:23;;;;;;;2.67;1.73;;;;;;;;;;5011060;28;20199;-64
2023/05/21 14:06:51;;;;;;;4.03;1.40;;;;;;;;;;5029188;28;20330;-53
2023/05/21 14:09:17;;;;;;;2.87;2.07;;;;;;;;;;5028943;28;20190;-64
2023/05/21 14:11:45;;;;;;;2.40;1.60;;;;;;;;;;5027933;28;20222;-64
2023/05/21 14:14:17;;;;;;;2.57;1.70;;;;;;;;;;5022090;28;20188;-63
2023/05/21 14:16:47;;;;;;;3.23;1.57;;;;;;;;;;5014724;28;20206;-66
2023/05/21 14:19:17;;;;;;;2.13;1.67;;;;;;;;;;5027361;28;20191;-66
2023/05/21 14:21:44;;;;;;;3.50;1.83;;;;;;;;;;5025340;28;20238;-66
2023/05/21 14:24:14;;;;;;;3.33;1.60;;;;;;;;;;4988645;28;20243;-66
2023/05/21 14:26:41;;;;;;;3.60;1.70;;;;;;;;;;5007458;28;20196;-65
2023/05/21 14:29:08;;;;;;;2.73;1.70;;;;;;;;;;5008061;28;20184;-65
2023/05/21 14:31:35;;;;;;;4.53;1.73;;;;;;;;;;5027176;28;20272;-65
2023/05/21 14:34:02;;;;;;;2.80;1.63;;;;;;;;;;5014963;28;20219;-66
2023/05/21 14:36:29;;;;;;;6.43;1.90;;;;;;;;;;5007333;28;20282;-67
2023/05/21 14:38:56;;;;;;;2.70;1.50;;;;;;;;;;5007112;28;20194;-67
2023/05/21 14:41:25;;;;;;;5.13;2.17;;;;;;;;;;4973898;28;20196;-66
2023/05/21 14:43:52;;;;;;;4.30;2.13;;;;;;;;;;5017781;28;20605;-63
2023/05/21 14:46:19;;;;;;;4.60;1.57;;;;;;;;;;5027267;28;20271;-67
2023/05/21 14:48:47;;;;;;;2.33;1.80;;;;;;;;;;5017310;28;20198;-66
2023/05/21 14:51:16;;;;;;;3.33;1.77;;;;;;;;;;5007633;28;20638;-66
2023/05/21 14:53:43;;;;;;;3.97;1.77;;;;;;;;;;5012068;28;20202;-67
2023/05/21 14:56:10;;;;;;;3.17;1.70;;;;;;;;;;5017004;28;20185;-67
2023/05/21 14:58:37;;;;;;;3.23;1.90;;;;;;;;;;5030097;28;20254;-65
2023/05/21 15:01:04;;;;;;;4.30;1.97;;;;;;;;;;5030581;28;20184;-65
2023/05/21 15:03:32;;;;;;;3.57;1.83;;;;;;;;;;5030495;28;20679;-55
2023/05/21 15:05:59;;;;;;;2.37;1.90;;;;;;;;;;5030724;28;21006;-67
2023/05/21 15:08:26;;;;;;;4.70;1.80;;;;;;;;;;5030463;28;20984;-67
2023/05/21 15:10:53;;;;;;;3.47;1.80;;;;;;;;;;5029673;28;20219;-67
2023/05/21 15:13:20;;;;;;;5.20;1.70;;;;;;;;;;5028370;28;20195;-67
2023/05/21 15:15:47;;;;;;;4.73;1.87;;;;;;;;;;5028483;28;20191;-67
2023/05/21 15:18:18;;;;;;;2.37;1.80;;;;;;;;;;5007076;28;20200;-68
2023/05/21 15:20:44;;;;;;;2.17;1.70;;;;;;;;;;4977090;28;20192;-69
2023/05/21 15:23:11;;;;;;;3.37;1.77;;;;;;;;;;5003339;28;20451;-68
2023/05/21 15:25:43;;;;;;;4.70;1.40;;;;;;;;;;5010889;28;20192;-68